KBWD/BWD METAR and TAF weather

Enter ICAO airport designator
Station Type Date Time Source
KBWD METAR 2019/05/23 19:35 UTC NOAA

KBWD 231935Z AUTO 15015G28KT 10SM CLR 30/19 A2991 RMK AO1


Station Type Date Time Source
KBWD Decoded METAR 2019/05/23 19:35 UTC NOAA

Brownwood, Brownwood Regional Airport, TX, United States (KBWD) 31-48N 098-57W
May 23, 2019 - 03:35 PM EDT / 2019.05.23 1935 UTC
Wind: from the SSE (150 degrees) at 17 MPH (15 KT) gusting to 32 MPH (28 KT):0
Visibility: 10 mile(s):0
Sky conditions: clear
Temperature: 86 F (30 C)
Dew Point: 66 F (19 C)
Relative Humidity: 51%
Pressure (altimeter): 29.91 in. Hg (1012 hPa)
ob: KBWD 231935Z AUTO 15015G28KT 10SM CLR 30/19 A2991 RMK AO1
cycle: 19

Station Type Date Time Source
KBWD TAF UTC NOAA

Error!

Example: see airport list